createdAt,value
2022-10-18T00:00:39.525Z,20.00
2022-10-18T00:05:46.770Z,20.13
2022-10-18T00:10:55.123Z,19.60
2022-10-18T00:16:05.303Z,18.87
2022-10-18T00:21:16.367Z,18.63
2022-10-18T00:26:29.720Z,19.07
2022-10-18T00:31:39.363Z,20.00
2022-10-18T00:36:47.561Z,20.47
2022-10-18T00:41:54.881Z,20.23
2022-10-18T00:47:08.676Z,20.47
2022-10-18T00:52:31.037Z,19.82
2022-10-18T00:57:40.232Z,18.57
2022-10-18T01:02:48.823Z,19.87
2022-10-18T01:08:25.250Z,18.27
2022-10-18T01:14:06.695Z,17.70
2022-10-18T01:19:43.239Z,19.40
2022-10-18T01:25:25.313Z,22.20
2022-10-18T01:30:36.519Z,19.37
2022-10-18T01:35:47.759Z,21.27
2022-10-18T01:40:56.249Z,20.93
2022-10-18T01:46:04.549Z,20.50
2022-10-18T01:51:11.944Z,19.27
2022-10-18T01:56:34.939Z,18.87
2022-10-18T02:02:16.014Z,20.43
2022-10-18T02:08:00.176Z,19.93
2022-10-18T02:13:00.674Z,21.50
2022-10-18T02:18:11.875Z,25.80
2022-10-18T02:23:22.309Z,26.63
2022-10-18T02:28:29.742Z,19.33
2022-10-18T02:34:07.567Z,19.07
2022-10-18T02:39:18.721Z,17.97
2022-10-18T02:44:25.815Z,20.57
2022-10-18T02:49:32.521Z,23.13
2022-10-18T02:54:39.253Z,22.00
2022-10-18T02:59:45.919Z,20.93
2022-10-18T03:04:52.613Z,20.03
2022-10-18T03:09:59.391Z,18.40
2022-10-18T03:15:06.919Z,19.23
2022-10-18T03:20:14.241Z,20.10
2022-10-18T03:25:23.824Z,18.67
2022-10-18T03:30:30.543Z,18.00
2022-10-18T03:35:37.236Z,17.63
2022-10-18T03:40:43.952Z,18.83
2022-10-18T03:45:50.687Z,17.60
2022-10-18T03:50:57.325Z,17.23
2022-10-18T03:56:04.066Z,18.50
2022-10-18T04:01:10.815Z,20.03
2022-10-18T04:06:17.490Z,18.97
2022-10-18T04:11:24.193Z,17.57
2022-10-18T04:16:30.971Z,17.77
2022-10-18T04:21:37.712Z,19.27
2022-10-18T04:26:44.485Z,19.10
2022-10-18T04:31:51.208Z,19.23
2022-10-18T04:36:57.877Z,19.47
2022-10-18T04:42:04.581Z,20.70
2022-10-18T04:47:11.275Z,20.60
2022-10-18T04:52:18.273Z,18.47
2022-10-18T04:57:25.012Z,20.07
2022-10-18T05:02:31.978Z,21.70
2022-10-18T05:07:38.869Z,22.13
2022-10-18T05:12:45.549Z,19.30
2022-10-18T05:17:52.667Z,19.40
2022-10-18T05:23:00.251Z,22.37
2022-10-18T05:28:15.576Z,22.57
2022-10-18T05:33:15.728Z,22.40
2022-10-18T05:38:22.682Z,19.90
2022-10-18T05:43:32.290Z,19.40
2022-10-18T05:48:38.994Z,19.90
2022-10-18T05:53:45.685Z,20.80
2022-10-18T05:58:53.502Z,18.60
2022-10-18T06:04:00.243Z,18.77
2022-10-18T06:09:08.843Z,20.17
2022-10-18T06:14:15.580Z,18.67
2022-10-18T06:19:22.276Z,18.07
2022-10-18T06:24:28.976Z,19.03
2022-10-18T06:29:37.268Z,19.80
2022-10-18T06:34:43.996Z,19.37
2022-10-18T06:39:50.700Z,17.60
2022-10-18T06:44:57.449Z,18.13
2022-10-18T06:50:04.119Z,16.90
2022-10-18T06:55:11.140Z,18.37
2022-10-18T07:00:18.115Z,18.40
2022-10-18T07:05:24.833Z,20.53
2022-10-18T07:10:31.596Z,21.57
2022-10-18T07:15:38.812Z,23.70
2022-10-18T07:20:45.473Z,26.23
2022-10-18T07:25:52.654Z,25.97
2022-10-18T07:31:03.645Z,23.77
2022-10-18T07:36:10.398Z,23.37
2022-10-18T07:41:17.395Z,24.20
2022-10-18T07:46:24.817Z,22.93
2022-10-18T07:51:33.016Z,22.73
2022-10-18T07:56:39.739Z,21.23
2022-10-18T08:01:46.458Z,22.17
2022-10-18T08:06:53.132Z,22.73
2022-10-18T08:11:59.833Z,22.23
2022-10-18T08:17:06.764Z,22.93
2022-10-18T08:22:13.460Z,20.50
2022-10-18T08:27:20.654Z,20.20
2022-10-18T08:32:28.866Z,21.43
2022-10-18T08:37:36.040Z,22.00
2022-10-18T08:43:05.018Z,20.17
2022-10-18T08:48:34.157Z,18.07
2022-10-18T08:53:51.157Z,18.53
2022-10-18T08:58:58.301Z,19.07
2022-10-18T09:04:27.471Z,19.77
2022-10-18T09:10:01.811Z,18.17
2022-10-18T09:15:36.692Z,16.87
2022-10-18T09:20:59.070Z,18.20
2022-10-18T09:26:24.346Z,18.10
2022-10-18T09:32:05.253Z,18.03
2022-10-18T09:37:15.263Z,17.47
2022-10-18T09:42:37.942Z,18.60
2022-10-18T09:47:51.716Z,18.77
2022-10-18T09:53:38.422Z,17.48
2022-10-18T09:58:51.958Z,18.43
2022-10-18T10:03:59.096Z,17.52
2022-10-18T10:09:18.448Z,16.70
2022-10-18T10:14:30.593Z,16.33
2022-10-18T10:20:05.642Z,16.40
2022-10-18T10:25:34.549Z,16.63
2022-10-18T10:30:41.621Z,15.53
2022-10-18T10:35:53.485Z,16.87
2022-10-18T10:40:59.662Z,16.37
2022-10-18T10:46:15.737Z,15.27
2022-10-18T10:51:38.907Z,15.73
2022-10-18T10:57:08.646Z,14.40
2022-10-18T11:02:25.303Z,14.27
2022-10-18T11:07:39.663Z,14.77
2022-10-18T11:13:03.940Z,14.17
2022-10-18T11:23:36.617Z,14.25
2022-10-18T11:29:19.291Z,13.38
2022-10-18T11:34:48.311Z,14.27
2022-10-18T11:40:17.131Z,13.47
2022-10-18T11:46:01.052Z,13.80
2022-10-18T11:51:34.393Z,14.27
2022-10-18T11:57:13.322Z,14.50
2022-10-18T12:02:30.703Z,13.50
2022-10-18T12:07:45.531Z,14.67
2022-10-18T12:12:59.530Z,14.13
2022-10-18T12:18:16.423Z,13.30
2022-10-18T12:23:35.159Z,13.80
2022-10-18T12:29:11.512Z,13.00
2022-10-18T12:34:28.774Z,12.47
2022-10-18T12:40:05.390Z,12.70
2022-10-18T12:45:16.196Z,12.40
2022-10-18T12:50:36.699Z,12.47
2022-10-18T12:55:47.912Z,12.23
2022-10-18T13:00:58.209Z,13.27
2022-10-18T13:06:06.745Z,12.27
2022-10-18T13:11:18.138Z,13.27
2022-10-18T13:16:54.582Z,12.30
2022-10-18T13:22:14.852Z,12.53
2022-10-18T13:27:47.388Z,12.77
2022-10-18T13:33:10.896Z,12.93
2022-10-18T13:38:59.213Z,13.53
2022-10-18T13:44:36.834Z,13.20
2022-10-18T13:49:59.194Z,12.57
2022-10-18T13:55:56.428Z,12.77
2022-10-18T14:01:14.084Z,13.10
2022-10-18T14:06:25.489Z,13.13
2022-10-18T14:11:53.907Z,12.60
2022-10-18T14:17:24.348Z,13.00
2022-10-18T14:22:56.252Z,12.73
2022-10-18T14:28:11.555Z,13.43
2022-10-18T14:33:38.279Z,13.10
2022-10-18T14:39:05.656Z,13.17
2022-10-18T14:44:19.845Z,12.20
2022-10-18T14:49:26.577Z,13.83
2022-10-18T14:54:40.359Z,13.30
2022-10-18T15:05:12.838Z,13.35
2022-10-18T15:10:29.637Z,14.80
2022-10-18T15:15:38.313Z,13.57
2022-10-18T15:20:45.499Z,13.10
2022-10-18T15:25:54.622Z,13.90
2022-10-18T15:31:02.454Z,14.30
2022-10-18T15:36:16.283Z,14.20
2022-10-18T15:47:00.319Z,14.58
2022-10-18T15:52:39.030Z,16.23
2022-10-18T15:57:46.627Z,16.47
2022-10-18T16:02:53.842Z,15.27
2022-10-18T16:08:00.758Z,14.60
2022-10-18T16:13:07.520Z,15.87
2022-10-18T16:18:21.002Z,15.23
2022-10-18T16:23:30.500Z,14.58
2022-10-18T16:28:37.224Z,15.67
2022-10-18T16:33:44.492Z,16.97
2022-10-18T16:38:52.547Z,16.17
2022-10-18T16:43:59.232Z,17.50
2022-10-18T16:49:07.737Z,16.83
2022-10-18T16:54:14.446Z,16.87
2022-10-18T16:59:31.554Z,17.40
2022-10-18T17:04:38.557Z,16.97
2022-10-18T17:09:45.557Z,15.47
2022-10-18T17:14:52.423Z,16.37
2022-10-18T17:19:59.244Z,16.60
2022-10-18T17:25:06.492Z,16.20
2022-10-18T17:30:15.438Z,15.83
2022-10-18T17:35:22.317Z,15.10
2022-10-18T17:40:29.939Z,15.67
2022-10-18T17:45:37.074Z,15.20
2022-10-18T17:50:44.686Z,15.13
2022-10-18T17:55:51.540Z,14.77
2022-10-18T18:00:58.407Z,15.23
2022-10-18T18:06:21.512Z,14.23
2022-10-18T18:11:29.641Z,13.40
2022-10-18T18:16:38.197Z,12.03
2022-10-18T18:21:46.266Z,13.37
2022-10-18T18:26:55.793Z,12.40
2022-10-18T18:32:03.868Z,13.30
2022-10-18T18:37:11.958Z,13.77
2022-10-18T18:42:18.839Z,13.47
2022-10-18T18:47:25.695Z,14.10
2022-10-18T18:52:33.028Z,14.23
2022-10-18T18:57:40.325Z,12.27
2022-10-18T19:02:47.183Z,12.90
2022-10-18T19:07:54.207Z,11.63
2022-10-18T19:13:00.964Z,11.97
2022-10-18T19:18:07.788Z,13.60
2022-10-18T19:23:15.015Z,14.37
2022-10-18T19:28:22.110Z,14.07
2022-10-18T19:33:41.371Z,14.57
2022-10-18T19:38:37.768Z,13.43
2022-10-18T19:43:44.479Z,13.83
2022-10-18T19:48:51.529Z,13.40
2022-10-18T19:53:59.532Z,12.87
2022-10-18T19:59:06.602Z,13.00
2022-10-18T20:04:15.369Z,13.57
2022-10-18T20:09:23.387Z,14.60
2022-10-18T20:14:30.468Z,14.10
2022-10-18T20:19:37.355Z,14.00
2022-10-18T20:24:44.217Z,14.90
2022-10-18T20:29:51.432Z,13.90
2022-10-18T20:34:58.923Z,12.90
2022-10-18T20:40:06.025Z,10.03
2022-10-18T20:45:13.132Z,10.80
2022-10-18T20:50:20.185Z,10.50
2022-10-18T20:55:27.011Z,9.77
2022-10-18T21:00:35.573Z,9.13
2022-10-18T21:05:42.608Z,10.07
2022-10-18T21:10:49.671Z,8.43
2022-10-18T21:15:58.583Z,8.63
2022-10-18T21:21:20.209Z,7.93
2022-10-18T21:26:29.300Z,8.03
2022-10-18T21:31:42.044Z,8.20
2022-10-18T21:36:50.372Z,7.70
2022-10-18T21:41:57.152Z,7.33
2022-10-18T21:47:04.007Z,8.93
2022-10-18T21:52:11.010Z,8.20
2022-10-18T21:57:18.154Z,7.73
2022-10-18T22:02:25.608Z,8.07
2022-10-18T22:07:33.048Z,8.37
2022-10-18T22:12:40.325Z,7.20
2022-10-18T22:17:47.055Z,6.50
2022-10-18T22:22:56.050Z,7.00
2022-10-18T22:28:03.262Z,6.60
2022-10-18T22:33:10.450Z,5.77
2022-10-18T22:38:17.237Z,5.60
2022-10-18T22:43:24.170Z,5.63
2022-10-18T22:48:31.736Z,5.20
2022-10-18T22:53:41.089Z,5.00
2022-10-18T22:58:48.737Z,4.27
2022-10-18T23:03:58.347Z,4.73
2022-10-18T23:09:09.098Z,4.37
2022-10-18T23:14:16.277Z,3.50
2022-10-18T23:19:23.465Z,3.90
2022-10-18T23:24:31.295Z,4.10
2022-10-18T23:29:38.122Z,3.80
2022-10-18T23:34:44.857Z,3.87
2022-10-18T23:39:52.084Z,4.03
2022-10-18T23:44:58.921Z,3.70
2022-10-18T23:50:07.246Z,3.53
2022-10-18T23:55:14.025Z,3.23
